ftmx62

TAF MMAS 090443Z 0906/1006 10005KT P6SM SKC 
         FM091800 22010KT P6SM BKN250 
         FM100500 22005KT P6SM SKC=
TAF MMEP 090443Z 0906/1006 00000KT P6SM SKC 
         FM091800 36008KT P6SM BKN250 
         FM100500 00000KT P6SM SKC=
TAF MMIA 090443Z 0906/1006 00000KT P6SM SKC 
         FM091800 24012KT P6SM SCT250 
         FM100500 00000KT P6SM SKC=
TAF MMLO 090443Z 0906/1006 34005KT P6SM SCT250 
         FM091800 27008KT P6SM BKN250 
         FM100500 30005KT P6SM SCT250=
TAF MMPN 090443Z 0906/1006 00000KT P6SM SKC 
         FM091800 18010KT P6SM BKN250 
         FM100500 00000KT P6SM SKC=
TAF MMQT 090443Z 0906/1006 12005KT P6SM SKC 
         TEMPO 0911/0915 4SM HZ BKN020 
         FM091800 32010KT P6SM 30008KT P6SM BKN250 
         FM100500 00000KT P6SM SKC=